sensor_id;sensor_type;location;lat;lon;timestamp;P1;durP1;ratioP1;P2;durP2;ratioP2
73593;SDS011;64760;53.404;23.498;2023-02-03T00:01:42;5.82;;;1.77;;
73593;SDS011;64760;53.404;23.498;2023-02-03T00:04:08;4.43;;;1.83;;
73593;SDS011;64760;53.404;23.498;2023-02-03T00:06:35;3.03;;;1.63;;
73593;SDS011;64760;53.404;23.498;2023-02-03T00:09:01;3.80;;;2.08;;
73593;SDS011;64760;53.404;23.498;2023-02-03T00:11:28;6.60;;;2.78;;
73593;SDS011;64760;53.404;23.498;2023-02-03T00:13:55;4.53;;;1.98;;
73593;SDS011;64760;53.404;23.498;2023-02-03T00:16:22;7.65;;;2.75;;
73593;SDS011;64760;53.404;23.498;2023-02-03T00:18:48;4.35;;;1.85;;
73593;SDS011;64760;53.404;23.498;2023-02-03T00:21:14;2.42;;;0.98;;
73593;SDS011;64760;53.404;23.498;2023-02-03T00:23:41;8.68;;;2.58;;
73593;SDS011;64760;53.404;23.498;2023-02-03T00:26:14;3.67;;;2.03;;
73593;SDS011;64760;53.404;23.498;2023-02-03T00:31:15;2.65;;;1.35;;
73593;SDS011;64760;53.404;23.498;2023-02-03T00:33:46;2.63;;;0.98;;
73593;SDS011;64760;53.404;23.498;2023-02-03T00:36:18;6.35;;;2.15;;
73593;SDS011;64760;53.404;23.498;2023-02-03T00:38:44;7.38;;;2.20;;
73593;SDS011;64760;53.404;23.498;2023-02-03T00:41:10;3.95;;;1.75;;
73593;SDS011;64760;53.404;23.498;2023-02-03T00:43:36;4.47;;;2.05;;
73593;SDS011;64760;53.404;23.498;2023-02-03T00:46:03;5.72;;;1.67;;
73593;SDS011;64760;53.404;23.498;2023-02-03T00:48:29;4.22;;;1.90;;
73593;SDS011;64760;53.404;23.498;2023-02-03T00:50:55;3.42;;;1.98;;
73593;SDS011;64760;53.404;23.498;2023-02-03T00:53:23;4.80;;;2.30;;
73593;SDS011;64760;53.404;23.498;2023-02-03T00:55:50;3.90;;;1.63;;
73593;SDS011;64760;53.404;23.498;2023-02-03T00:58:16;6.90;;;2.28;;
73593;SDS011;64760;53.404;23.498;2023-02-03T01:00:43;5.43;;;2.17;;
73593;SDS011;64760;53.404;23.498;2023-02-03T01:03:09;5.80;;;2.70;;
73593;SDS011;64760;53.404;23.498;2023-02-03T01:05:36;8.05;;;2.78;;
73593;SDS011;64760;53.404;23.498;2023-02-03T01:08:02;5.70;;;2.25;;
73593;SDS011;64760;53.404;23.498;2023-02-03T01:10:29;5.50;;;2.40;;
73593;SDS011;64760;53.404;23.498;2023-02-03T01:12:55;4.10;;;2.13;;
73593;SDS011;64760;53.404;23.498;2023-02-03T01:15:21;5.03;;;2.05;;
73593;SDS011;64760;53.404;23.498;2023-02-03T01:17:47;6.72;;;2.85;;
73593;SDS011;64760;53.404;23.498;2023-02-03T01:20:14;4.30;;;1.48;;
73593;SDS011;64760;53.404;23.498;2023-02-03T01:22:41;3.70;;;1.50;;
73593;SDS011;64760;53.404;23.498;2023-02-03T01:25:08;4.05;;;1.30;;
73593;SDS011;64760;53.404;23.498;2023-02-03T01:27:34;6.10;;;2.08;;
73593;SDS011;64760;53.404;23.498;2023-02-03T01:30:01;3.47;;;1.67;;
73593;SDS011;64760;53.404;23.498;2023-02-03T01:32:27;5.57;;;1.95;;
73593;SDS011;64760;53.404;23.498;2023-02-03T01:34:53;2.92;;;1.52;;
73593;SDS011;64760;53.404;23.498;2023-02-03T01:37:21;4.28;;;2.05;;
73593;SDS011;64760;53.404;23.498;2023-02-03T01:39:48;4.70;;;1.88;;
73593;SDS011;64760;53.404;23.498;2023-02-03T01:42:14;5.22;;;2.10;;
73593;SDS011;64760;53.404;23.498;2023-02-03T01:44:45;7.25;;;2.33;;
73593;SDS011;64760;53.404;23.498;2023-02-03T01:47:38;4.28;;;1.75;;
73593;SDS011;64760;53.404;23.498;2023-02-03T01:50:10;7.22;;;1.85;;
73593;SDS011;64760;53.404;23.498;2023-02-03T01:52:44;6.03;;;2.20;;
73593;SDS011;64760;53.404;23.498;2023-02-03T01:55:16;4.05;;;2.60;;
73593;SDS011;64760;53.404;23.498;2023-02-03T01:57:53;6.15;;;2.28;;
73593;SDS011;64760;53.404;23.498;2023-02-03T02:00:24;3.10;;;1.52;;
73593;SDS011;64760;53.404;23.498;2023-02-03T02:02:54;8.77;;;3.42;;
73593;SDS011;64760;53.404;23.498;2023-02-03T02:05:31;6.72;;;3.10;;
73593;SDS011;64760;53.404;23.498;2023-02-03T02:08:01;7.13;;;2.42;;
73593;SDS011;64760;53.404;23.498;2023-02-03T02:10:29;3.88;;;1.65;;
73593;SDS011;64760;53.404;23.498;2023-02-03T02:12:56;3.72;;;1.67;;
73593;SDS011;64760;53.404;23.498;2023-02-03T02:15:27;4.05;;;1.45;;
73593;SDS011;64760;53.404;23.498;2023-02-03T02:40:43;6.30;;;2.35;;
73593;SDS011;64760;53.404;23.498;2023-02-03T02:43:22;5.07;;;2.53;;
73593;SDS011;64760;53.404;23.498;2023-02-03T02:46:01;7.03;;;3.55;;
73593;SDS011;64760;53.404;23.498;2023-02-03T02:48:32;4.20;;;2.30;;
73593;SDS011;64760;53.404;23.498;2023-02-03T02:51:04;8.82;;;3.58;;
73593;SDS011;64760;53.404;23.498;2023-02-03T02:53:36;5.47;;;2.47;;
73593;SDS011;64760;53.404;23.498;2023-02-03T02:56:08;6.85;;;2.70;;
73593;SDS011;64760;53.404;23.498;2023-02-03T03:01:04;6.50;;;3.38;;
73593;SDS011;64760;53.404;23.498;2023-02-03T03:03:33;9.75;;;2.60;;
73593;SDS011;64760;53.404;23.498;2023-02-03T03:06:04;5.82;;;2.85;;
73593;SDS011;64760;53.404;23.498;2023-02-03T03:08:56;5.97;;;2.85;;
73593;SDS011;64760;53.404;23.498;2023-02-03T03:11:35;7.53;;;2.88;;
73593;SDS011;64760;53.404;23.498;2023-02-03T03:14:06;5.15;;;1.92;;
73593;SDS011;64760;53.404;23.498;2023-02-03T03:16:36;8.90;;;3.47;;
73593;SDS011;64760;53.404;23.498;2023-02-03T03:19:06;6.78;;;2.88;;
73593;SDS011;64760;53.404;23.498;2023-02-03T03:21:39;5.00;;;2.30;;
73593;SDS011;64760;53.404;23.498;2023-02-03T03:29:08;5.75;;;2.47;;
73593;SDS011;64760;53.404;23.498;2023-02-03T03:31:40;8.35;;;3.95;;
73593;SDS011;64760;53.404;23.498;2023-02-03T03:34:09;6.70;;;2.47;;
73593;SDS011;64760;53.404;23.498;2023-02-03T03:39:23;2.85;;;1.13;;
73593;SDS011;64760;53.404;23.498;2023-02-03T03:42:05;5.72;;;2.72;;
73593;SDS011;64760;53.404;23.498;2023-02-03T03:44:42;7.95;;;2.97;;
73593;SDS011;64760;53.404;23.498;2023-02-03T03:47:14;10.23;;;3.85;;
73593;SDS011;64760;53.404;23.498;2023-02-03T03:50:02;12.40;;;4.60;;
73593;SDS011;64760;53.404;23.498;2023-02-03T03:52:33;7.82;;;3.63;;
73593;SDS011;64760;53.404;23.498;2023-02-03T03:55:05;3.67;;;1.73;;
73593;SDS011;64760;53.404;23.498;2023-02-03T03:57:36;7.80;;;3.03;;
73593;SDS011;64760;53.404;23.498;2023-02-03T04:00:07;4.78;;;2.55;;
73593;SDS011;64760;53.404;23.498;2023-02-03T04:02:39;4.55;;;2.42;;
73593;SDS011;64760;53.404;23.498;2023-02-03T04:05:07;9.30;;;4.15;;
73593;SDS011;64760;53.404;23.498;2023-02-03T04:07:36;4.35;;;2.08;;
73593;SDS011;64760;53.404;23.498;2023-02-03T04:10:05;6.63;;;3.22;;
73593;SDS011;64760;53.404;23.498;2023-02-03T04:12:37;10.07;;;3.95;;
73593;SDS011;64760;53.404;23.498;2023-02-03T04:15:03;8.95;;;3.53;;
73593;SDS011;64760;53.404;23.498;2023-02-03T04:17:30;4.32;;;2.15;;
73593;SDS011;64760;53.404;23.498;2023-02-03T04:19:59;7.55;;;2.55;;
73593;SDS011;64760;53.404;23.498;2023-02-03T04:22:24;8.20;;;4.70;;
73593;SDS011;64760;53.404;23.498;2023-02-03T04:24:51;9.02;;;3.75;;
73593;SDS011;64760;53.404;23.498;2023-02-03T04:27:17;10.90;;;4.50;;
73593;SDS011;64760;53.404;23.498;2023-02-03T04:29:43;8.70;;;3.70;;
73593;SDS011;64760;53.404;23.498;2023-02-03T04:32:12;8.73;;;4.45;;
73593;SDS011;64760;53.404;23.498;2023-02-03T04:34:38;9.52;;;4.07;;
73593;SDS011;64760;53.404;23.498;2023-02-03T04:37:04;4.60;;;2.47;;
73593;SDS011;64760;53.404;23.498;2023-02-03T04:39:30;7.22;;;3.20;;
73593;SDS011;64760;53.404;23.498;2023-02-03T04:41:56;8.85;;;4.43;;
73593;SDS011;64760;53.404;23.498;2023-02-03T04:44:23;11.02;;;5.07;;
73593;SDS011;64760;53.404;23.498;2023-02-03T04:46:49;9.35;;;3.60;;
73593;SDS011;64760;53.404;23.498;2023-02-03T04:49:16;8.80;;;4.05;;
73593;SDS011;64760;53.404;23.498;2023-02-03T04:51:42;5.95;;;2.38;;
73593;SDS011;64760;53.404;23.498;2023-02-03T04:54:11;11.38;;;3.47;;
73593;SDS011;64760;53.404;23.498;2023-02-03T04:56:37;7.55;;;3.15;;
73593;SDS011;64760;53.404;23.498;2023-02-03T04:59:03;8.55;;;4.45;;
73593;SDS011;64760;53.404;23.498;2023-02-03T05:01:30;5.78;;;3.03;;
73593;SDS011;64760;53.404;23.498;2023-02-03T05:03:56;18.20;;;5.78;;
73593;SDS011;64760;53.404;23.498;2023-02-03T05:06:23;19.67;;;7.30;;
73593;SDS011;64760;53.404;23.498;2023-02-03T05:08:51;18.02;;;6.63;;
73593;SDS011;64760;53.404;23.498;2023-02-03T05:11:17;6.75;;;3.50;;
73593;SDS011;64760;53.404;23.498;2023-02-03T05:13:44;26.55;;;10.88;;
73593;SDS011;64760;53.404;23.498;2023-02-03T05:16:10;15.15;;;4.88;;
73593;SDS011;64760;53.404;23.498;2023-02-03T05:18:36;22.17;;;8.90;;
73593;SDS011;64760;53.404;23.498;2023-02-03T05:21:03;21.42;;;7.32;;
73593;SDS011;64760;53.404;23.498;2023-02-03T05:23:29;13.45;;;5.28;;
73593;SDS011;64760;53.404;23.498;2023-02-03T05:25:55;7.50;;;3.83;;
73593;SDS011;64760;53.404;23.498;2023-02-03T05:28:22;9.27;;;4.20;;
73593;SDS011;64760;53.404;23.498;2023-02-03T05:30:48;9.68;;;4.43;;
73593;SDS011;64760;53.404;23.498;2023-02-03T05:33:14;10.80;;;4.78;;
73593;SDS011;64760;53.404;23.498;2023-02-03T05:35:40;8.10;;;3.78;;
73593;SDS011;64760;53.404;23.498;2023-02-03T05:38:07;6.85;;;4.18;;
73593;SDS011;64760;53.404;23.498;2023-02-03T05:40:33;9.90;;;4.25;;
73593;SDS011;64760;53.404;23.498;2023-02-03T05:43:18;8.40;;;3.67;;
73593;SDS011;64760;53.404;23.498;2023-02-03T05:45:44;12.25;;;5.78;;
73593;SDS011;64760;53.404;23.498;2023-02-03T05:48:11;16.75;;;7.22;;
73593;SDS011;64760;53.404;23.498;2023-02-03T05:50:37;14.88;;;6.05;;
73593;SDS011;64760;53.404;23.498;2023-02-03T05:53:07;19.90;;;7.38;;
73593;SDS011;64760;53.404;23.498;2023-02-03T05:55:34;16.50;;;7.78;;
73593;SDS011;64760;53.404;23.498;2023-02-03T05:58:03;16.27;;;7.70;;
73593;SDS011;64760;53.404;23.498;2023-02-03T06:00:29;19.35;;;7.57;;
73593;SDS011;64760;53.404;23.498;2023-02-03T06:02:57;14.10;;;7.68;;
73593;SDS011;64760;53.404;23.498;2023-02-03T06:05:25;11.85;;;6.18;;
73593;SDS011;64760;53.404;23.498;2023-02-03T06:07:51;17.80;;;7.82;;
73593;SDS011;64760;53.404;23.498;2023-02-03T06:10:17;14.02;;;6.10;;
73593;SDS011;64760;53.404;23.498;2023-02-03T06:12:44;12.35;;;5.63;;
73593;SDS011;64760;53.404;23.498;2023-02-03T06:15:11;9.95;;;5.10;;
73593;SDS011;64760;53.404;23.498;2023-02-03T06:17:37;16.38;;;7.28;;
73593;SDS011;64760;53.404;23.498;2023-02-03T06:20:06;17.60;;;6.90;;
73593;SDS011;64760;53.404;23.498;2023-02-03T06:22:34;15.70;;;6.80;;
73593;SDS011;64760;53.404;23.498;2023-02-03T06:25:00;5.65;;;2.88;;
73593;SDS011;64760;53.404;23.498;2023-02-03T06:27:26;18.42;;;7.63;;
73593;SDS011;64760;53.404;23.498;2023-02-03T06:29:52;16.88;;;7.80;;
73593;SDS011;64760;53.404;23.498;2023-02-03T06:32:19;11.73;;;5.13;;
73593;SDS011;64760;53.404;23.498;2023-02-03T06:34:45;8.23;;;5.25;;
73593;SDS011;64760;53.404;23.498;2023-02-03T06:37:11;18.13;;;8.82;;
73593;SDS011;64760;53.404;23.498;2023-02-03T06:39:38;14.85;;;8.02;;
73593;SDS011;64760;53.404;23.498;2023-02-03T06:42:04;17.25;;;9.63;;
73593;SDS011;64760;53.404;23.498;2023-02-03T06:44:31;22.77;;;12.85;;
73593;SDS011;64760;53.404;23.498;2023-02-03T06:46:57;31.52;;;15.20;;
73593;SDS011;64760;53.404;23.498;2023-02-03T06:49:24;19.63;;;8.75;;
73593;SDS011;64760;53.404;23.498;2023-02-03T06:51:50;27.55;;;11.60;;
73593;SDS011;64760;53.404;23.498;2023-02-03T06:54:19;19.77;;;9.95;;
73593;SDS011;64760;53.404;23.498;2023-02-03T06:56:46;22.40;;;10.30;;
73593;SDS011;64760;53.404;23.498;2023-02-03T06:59:13;17.00;;;8.70;;
73593;SDS011;64760;53.404;23.498;2023-02-03T07:01:39;27.65;;;15.05;;
73593;SDS011;64760;53.404;23.498;2023-02-03T07:04:06;29.00;;;15.05;;
73593;SDS011;64760;53.404;23.498;2023-02-03T07:06:33;30.70;;;15.10;;
73593;SDS011;64760;53.404;23.498;2023-02-03T07:09:00;32.42;;;15.30;;
73593;SDS011;64760;53.404;23.498;2023-02-03T07:11:27;25.52;;;13.20;;
73593;SDS011;64760;53.404;23.498;2023-02-03T07:13:54;17.98;;;9.52;;
73593;SDS011;64760;53.404;23.498;2023-02-03T07:16:20;22.23;;;11.98;;
73593;SDS011;64760;53.404;23.498;2023-02-03T07:18:46;28.42;;;15.50;;
73593;SDS011;64760;53.404;23.498;2023-02-03T07:21:13;14.63;;;8.32;;
73593;SDS011;64760;53.404;23.498;2023-02-03T07:23:39;26.83;;;11.38;;
73593;SDS011;64760;53.404;23.498;2023-02-03T07:26:06;25.45;;;12.48;;
73593;SDS011;64760;53.404;23.498;2023-02-03T07:28:34;27.27;;;13.20;;
73593;SDS011;64760;53.404;23.498;2023-02-03T07:31:02;20.10;;;9.65;;
73593;SDS011;64760;53.404;23.498;2023-02-03T07:33:35;11.02;;;4.93;;
73593;SDS011;64760;53.404;23.498;2023-02-03T07:36:02;12.65;;;6.35;;
73593;SDS011;64760;53.404;23.498;2023-02-03T07:38:29;14.63;;;8.18;;
73593;SDS011;64760;53.404;23.498;2023-02-03T07:40:55;25.13;;;11.13;;
73593;SDS011;64760;53.404;23.498;2023-02-03T07:43:22;17.98;;;8.40;;
73593;SDS011;64760;53.404;23.498;2023-02-03T07:45:48;11.02;;;4.32;;
73593;SDS011;64760;53.404;23.498;2023-02-03T07:48:15;4.05;;;2.03;;
73593;SDS011;64760;53.404;23.498;2023-02-03T07:50:41;15.18;;;6.22;;
73593;SDS011;64760;53.404;23.498;2023-02-03T07:53:07;10.73;;;5.63;;
73593;SDS011;64760;53.404;23.498;2023-02-03T07:55:36;11.10;;;5.50;;
73593;SDS011;64760;53.404;23.498;2023-02-03T07:58:03;8.90;;;4.57;;
73593;SDS011;64760;53.404;23.498;2023-02-03T08:00:29;29.13;;;12.90;;
73593;SDS011;64760;53.404;23.498;2023-02-03T08:02:56;19.50;;;9.45;;
73593;SDS011;64760;53.404;23.498;2023-02-03T08:05:23;12.68;;;5.53;;
73593;SDS011;64760;53.404;23.498;2023-02-03T08:07:49;22.63;;;10.32;;
73593;SDS011;64760;53.404;23.498;2023-02-03T08:10:15;10.70;;;5.15;;
73593;SDS011;64760;53.404;23.498;2023-02-03T08:12:42;14.80;;;7.07;;
73593;SDS011;64760;53.404;23.498;2023-02-03T08:15:10;7.38;;;3.78;;
73593;SDS011;64760;53.404;23.498;2023-02-03T08:17:36;13.13;;;7.60;;
73593;SDS011;64760;53.404;23.498;2023-02-03T08:20:05;6.25;;;3.65;;
73593;SDS011;64760;53.404;23.498;2023-02-03T08:22:32;14.10;;;6.75;;
73593;SDS011;64760;53.404;23.498;2023-02-03T08:24:58;13.25;;;6.53;;
73593;SDS011;64760;53.404;23.498;2023-02-03T08:27:24;11.25;;;5.25;;
73593;SDS011;64760;53.404;23.498;2023-02-03T08:29:51;19.08;;;10.07;;
73593;SDS011;64760;53.404;23.498;2023-02-03T08:32:19;23.02;;;10.90;;
73593;SDS011;64760;53.404;23.498;2023-02-03T08:34:47;39.72;;;16.40;;
73593;SDS011;64760;53.404;23.498;2023-02-03T08:37:14;63.10;;;22.33;;
73593;SDS011;64760;53.404;23.498;2023-02-03T08:39:42;20.85;;;10.13;;
73593;SDS011;64760;53.404;23.498;2023-02-03T08:42:09;41.08;;;14.82;;
73593;SDS011;64760;53.404;23.498;2023-02-03T08:44:36;23.75;;;9.98;;
73593;SDS011;64760;53.404;23.498;2023-02-03T08:47:05;27.17;;;11.27;;
73593;SDS011;64760;53.404;23.498;2023-02-03T08:49:32;14.18;;;6.25;;
73593;SDS011;64760;53.404;23.498;2023-02-03T08:52:00;25.45;;;11.48;;
73593;SDS011;64760;53.404;23.498;2023-02-03T08:54:28;28.08;;;12.82;;
73593;SDS011;64760;53.404;23.498;2023-02-03T08:56:54;22.88;;;9.32;;
73593;SDS011;64760;53.404;23.498;2023-02-03T08:59:21;20.60;;;10.15;;
73593;SDS011;64760;53.404;23.498;2023-02-03T09:01:47;20.08;;;8.88;;
73593;SDS011;64760;53.404;23.498;2023-02-03T09:04:14;18.58;;;8.40;;
73593;SDS011;64760;53.404;23.498;2023-02-03T09:06:52;12.18;;;6.50;;
73593;SDS011;64760;53.404;23.498;2023-02-03T09:09:19;12.52;;;7.28;;
73593;SDS011;64760;53.404;23.498;2023-02-03T09:11:46;30.90;;;15.68;;
73593;SDS011;64760;53.404;23.498;2023-02-03T09:14:13;20.45;;;10.65;;
73593;SDS011;64760;53.404;23.498;2023-02-03T09:16:39;15.68;;;7.75;;
73593;SDS011;64760;53.404;23.498;2023-02-03T09:19:06;13.88;;;7.78;;
73593;SDS011;64760;53.404;23.498;2023-02-03T09:21:35;14.50;;;6.80;;
73593;SDS011;64760;53.404;23.498;2023-02-03T09:24:01;8.82;;;5.50;;
73593;SDS011;64760;53.404;23.498;2023-02-03T09:26:28;11.10;;;5.20;;
73593;SDS011;64760;53.404;23.498;2023-02-03T09:28:55;27.00;;;13.85;;
73593;SDS011;64760;53.404;23.498;2023-02-03T09:31:21;12.60;;;7.50;;
73593;SDS011;64760;53.404;23.498;2023-02-03T09:33:47;20.48;;;9.27;;
73593;SDS011;64760;53.404;23.498;2023-02-03T09:36:14;22.42;;;10.77;;
73593;SDS011;64760;53.404;23.498;2023-02-03T09:38:41;10.77;;;6.28;;
73593;SDS011;64760;53.404;23.498;2023-02-03T09:43:40;11.30;;;5.63;;
73593;SDS011;64760;53.404;23.498;2023-02-03T09:46:25;11.07;;;6.10;;
73593;SDS011;64760;53.404;23.498;2023-02-03T09:48:55;8.27;;;4.45;;
73593;SDS011;64760;53.404;23.498;2023-02-03T09:51:31;6.15;;;3.60;;
73593;SDS011;64760;53.404;23.498;2023-02-03T09:54:22;14.35;;;7.80;;
73593;SDS011;64760;53.404;23.498;2023-02-03T09:56:56;9.40;;;5.32;;
73593;SDS011;64760;53.404;23.498;2023-02-03T09:59:25;18.20;;;10.90;;
73593;SDS011;64760;53.404;23.498;2023-02-03T10:04:37;19.15;;;9.32;;
73593;SDS011;64760;53.404;23.498;2023-02-03T10:17:58;13.85;;;8.88;;
73593;SDS011;64760;53.404;23.498;2023-02-03T10:22:58;4.90;;;2.63;;
73593;SDS011;64760;53.404;23.498;2023-02-03T10:25:34;14.00;;;8.73;;
73593;SDS011;64760;53.404;23.498;2023-02-03T10:28:08;15.35;;;6.60;;
73593;SDS011;64760;53.404;23.498;2023-02-03T10:30:43;2.97;;;1.50;;
73593;SDS011;64760;53.404;23.498;2023-02-03T10:33:17;2.88;;;1.55;;
73593;SDS011;64760;53.404;23.498;2023-02-03T10:38:39;5.25;;;2.13;;
73593;SDS011;64760;53.404;23.498;2023-02-03T10:41:16;4.30;;;1.65;;
73593;SDS011;64760;53.404;23.498;2023-02-03T10:43:51;4.20;;;2.15;;
73593;SDS011;64760;53.404;23.498;2023-02-03T10:46:19;4.70;;;2.30;;
73593;SDS011;64760;53.404;23.498;2023-02-03T10:48:51;4.93;;;1.95;;
73593;SDS011;64760;53.404;23.498;2023-02-03T10:51:19;4.13;;;1.65;;
73593;SDS011;64760;53.404;23.498;2023-02-03T10:53:48;3.35;;;1.42;;
73593;SDS011;64760;53.404;23.498;2023-02-03T10:56:22;4.20;;;2.25;;
73593;SDS011;64760;53.404;23.498;2023-02-03T10:58:58;3.72;;;1.42;;
73593;SDS011;64760;53.404;23.498;2023-02-03T11:01:46;6.32;;;2.15;;
73593;SDS011;64760;53.404;23.498;2023-02-03T11:06:55;11.93;;;5.78;;
73593;SDS011;64760;53.404;23.498;2023-02-03T11:09:36;21.83;;;11.25;;
73593;SDS011;64760;53.404;23.498;2023-02-03T11:12:05;14.68;;;8.30;;
73593;SDS011;64760;53.404;23.498;2023-02-03T11:14:37;11.00;;;4.30;;
73593;SDS011;64760;53.404;23.498;2023-02-03T11:17:06;13.63;;;5.97;;
73593;SDS011;64760;53.404;23.498;2023-02-03T11:19:35;9.02;;;5.82;;
73593;SDS011;64760;53.404;23.498;2023-02-03T11:22:04;6.60;;;3.65;;
73593;SDS011;64760;53.404;23.498;2023-02-03T11:24:32;58.72;;;33.33;;
73593;SDS011;64760;53.404;23.498;2023-02-03T11:27:08;28.85;;;13.35;;
73593;SDS011;64760;53.404;23.498;2023-02-03T11:29:39;5.95;;;3.10;;
73593;SDS011;64760;53.404;23.498;2023-02-03T11:34:39;4.38;;;1.67;;
73593;SDS011;64760;53.404;23.498;2023-02-03T11:42:34;5.97;;;2.78;;
73593;SDS011;64760;53.404;23.498;2023-02-03T11:47:50;3.90;;;2.25;;
73593;SDS011;64760;53.404;23.498;2023-02-03T11:53:26;5.65;;;2.35;;
73593;SDS011;64760;53.404;23.498;2023-02-03T11:58:39;5.15;;;2.53;;
73593;SDS011;64760;53.404;23.498;2023-02-03T12:01:21;3.60;;;2.00;;
73593;SDS011;64760;53.404;23.498;2023-02-03T12:20:21;4.97;;;2.38;;
73593;SDS011;64760;53.404;23.498;2023-02-03T12:31:31;4.85;;;2.08;;
73593;SDS011;64760;53.404;23.498;2023-02-03T12:37:01;4.38;;;1.95;;
73593;SDS011;64760;53.404;23.498;2023-02-03T12:39:52;7.00;;;2.53;;
73593;SDS011;64760;53.404;23.498;2023-02-03T12:42:28;6.65;;;3.05;;
73593;SDS011;64760;53.404;23.498;2023-02-03T12:45:04;6.55;;;3.33;;
73593;SDS011;64760;53.404;23.498;2023-02-03T12:50:31;9.48;;;4.10;;
73593;SDS011;64760;53.404;23.498;2023-02-03T12:53:02;6.72;;;3.08;;
73593;SDS011;64760;53.404;23.498;2023-02-03T12:55:41;10.70;;;3.25;;
73593;SDS011;64760;53.404;23.498;2023-02-03T12:58:14;6.00;;;2.47;;
73593;SDS011;64760;53.404;23.498;2023-02-03T13:01:00;11.75;;;3.90;;
73593;SDS011;64760;53.404;23.498;2023-02-03T13:11:55;6.68;;;2.35;;
73593;SDS011;64760;53.404;23.498;2023-02-03T13:17:40;4.35;;;1.80;;
73593;SDS011;64760;53.404;23.498;2023-02-03T13:19:55;11.10;;;3.92;;
73593;SDS011;64760;53.404;23.498;2023-02-03T13:22:24;9.40;;;4.00;;
73593;SDS011;64760;53.404;23.498;2023-02-03T13:24:55;7.35;;;2.25;;
73593;SDS011;64760;53.404;23.498;2023-02-03T13:35:31;6.25;;;2.60;;
73593;SDS011;64760;53.404;23.498;2023-02-03T13:44:20;5.38;;;2.72;;
73593;SDS011;64760;53.404;23.498;2023-02-03T13:46:59;7.97;;;3.50;;
73593;SDS011;64760;53.404;23.498;2023-02-03T13:49:31;7.65;;;3.38;;
73593;SDS011;64760;53.404;23.498;2023-02-03T13:52:00;9.32;;;4.03;;
73593;SDS011;64760;53.404;23.498;2023-02-03T13:57:19;11.60;;;5.70;;
73593;SDS011;64760;53.404;23.498;2023-02-03T13:59:47;5.70;;;2.88;;
73593;SDS011;64760;53.404;23.498;2023-02-03T14:10:04;14.88;;;4.93;;
73593;SDS011;64760;53.404;23.498;2023-02-03T14:22:56;4.57;;;2.03;;
73593;SDS011;64760;53.404;23.498;2023-02-03T14:25:26;4.28;;;2.35;;
73593;SDS011;64760;53.404;23.498;2023-02-03T14:28:07;4.00;;;1.88;;
73593;SDS011;64760;53.404;23.498;2023-02-03T14:31:00;3.55;;;2.13;;
73593;SDS011;64760;53.404;23.498;2023-02-03T14:34:08;4.30;;;2.05;;
73593;SDS011;64760;53.404;23.498;2023-02-03T14:36:43;4.32;;;2.00;;
73593;SDS011;64760;53.404;23.498;2023-02-03T14:41:53;10.82;;;3.28;;
73593;SDS011;64760;53.404;23.498;2023-02-03T15:00:57;8.88;;;4.18;;
73593;SDS011;64760;53.404;23.498;2023-02-03T15:03:25;10.95;;;4.85;;
73593;SDS011;64760;53.404;23.498;2023-02-03T15:05:59;6.22;;;3.15;;
73593;SDS011;64760;53.404;23.498;2023-02-03T15:13:52;8.15;;;3.65;;
73593;SDS011;64760;53.404;23.498;2023-02-03T15:16:21;10.57;;;4.30;;
73593;SDS011;64760;53.404;23.498;2023-02-03T15:18:53;12.23;;;5.80;;
73593;SDS011;64760;53.404;23.498;2023-02-03T15:21:27;17.10;;;5.72;;
73593;SDS011;64760;53.404;23.498;2023-02-03T15:23:53;16.33;;;7.47;;
73593;SDS011;64760;53.404;23.498;2023-02-03T15:26:25;17.33;;;8.60;;
73593;SDS011;64760;53.404;23.498;2023-02-03T15:28:52;15.32;;;7.32;;
73593;SDS011;64760;53.404;23.498;2023-02-03T15:31:32;13.32;;;6.80;;
73593;SDS011;64760;53.404;23.498;2023-02-03T15:37:00;37.00;;;16.00;;
73593;SDS011;64760;53.404;23.498;2023-02-03T15:39:41;47.95;;;19.25;;
73593;SDS011;64760;53.404;23.498;2023-02-03T15:42:17;39.72;;;18.50;;
73593;SDS011;64760;53.404;23.498;2023-02-03T15:44:59;36.72;;;15.15;;
73593;SDS011;64760;53.404;23.498;2023-02-03T15:47:37;39.47;;;16.67;;
73593;SDS011;64760;53.404;23.498;2023-02-03T15:50:27;33.65;;;16.05;;
73593;SDS011;64760;53.404;23.498;2023-02-03T15:52:59;38.10;;;16.52;;
73593;SDS011;64760;53.404;23.498;2023-02-03T15:55:50;37.75;;;15.32;;
73593;SDS011;64760;53.404;23.498;2023-02-03T15:58:25;27.73;;;12.75;;
73593;SDS011;64760;53.404;23.498;2023-02-03T16:00:54;27.95;;;11.32;;
73593;SDS011;64760;53.404;23.498;2023-02-03T16:03:27;27.17;;;11.32;;
73593;SDS011;64760;53.404;23.498;2023-02-03T16:06:08;44.25;;;19.67;;
73593;SDS011;64760;53.404;23.498;2023-02-03T16:08:42;41.33;;;18.25;;
73593;SDS011;64760;53.404;23.498;2023-02-03T16:14:04;33.17;;;18.83;;
73593;SDS011;64760;53.404;23.498;2023-02-03T16:16:50;35.75;;;17.60;;
73593;SDS011;64760;53.404;23.498;2023-02-03T16:19:20;40.13;;;17.85;;
73593;SDS011;64760;53.404;23.498;2023-02-03T16:24:38;41.35;;;16.42;;
73593;SDS011;64760;53.404;23.498;2023-02-03T16:29:53;54.40;;;21.85;;
73593;SDS011;64760;53.404;23.498;2023-02-03T16:33:09;45.58;;;18.65;;
73593;SDS011;64760;53.404;23.498;2023-02-03T16:36:12;56.60;;;20.50;;
73593;SDS011;64760;53.404;23.498;2023-02-03T16:38:57;27.83;;;11.70;;
73593;SDS011;64760;53.404;23.498;2023-02-03T16:41:45;11.70;;;5.75;;
73593;SDS011;64760;53.404;23.498;2023-02-03T16:44:30;23.95;;;7.72;;
73593;SDS011;64760;53.404;23.498;2023-02-03T16:47:21;33.22;;;12.25;;
73593;SDS011;64760;53.404;23.498;2023-02-03T16:50:10;42.80;;;15.05;;
73593;SDS011;64760;53.404;23.498;2023-02-03T16:53:08;48.38;;;15.30;;
73593;SDS011;64760;53.404;23.498;2023-02-03T16:55:38;38.00;;;13.73;;
73593;SDS011;64760;53.404;23.498;2023-02-03T16:58:05;27.20;;;10.80;;
73593;SDS011;64760;53.404;23.498;2023-02-03T17:00:31;31.30;;;11.57;;
73593;SDS011;64760;53.404;23.498;2023-02-03T17:03:02;14.05;;;6.22;;
73593;SDS011;64760;53.404;23.498;2023-02-03T17:05:29;16.08;;;7.22;;
73593;SDS011;64760;53.404;23.498;2023-02-03T17:07:56;11.55;;;5.45;;
73593;SDS011;64760;53.404;23.498;2023-02-03T17:10:22;14.75;;;6.20;;
73593;SDS011;64760;53.404;23.498;2023-02-03T17:12:50;13.52;;;5.15;;
73593;SDS011;64760;53.404;23.498;2023-02-03T17:15:17;28.50;;;11.05;;
73593;SDS011;64760;53.404;23.498;2023-02-03T17:17:43;13.30;;;5.90;;
73593;SDS011;64760;53.404;23.498;2023-02-03T17:20:10;9.20;;;4.60;;
73593;SDS011;64760;53.404;23.498;2023-02-03T17:22:37;7.07;;;3.67;;
73593;SDS011;64760;53.404;23.498;2023-02-03T17:25:03;14.55;;;4.90;;
73593;SDS011;64760;53.404;23.498;2023-02-03T17:27:30;10.25;;;4.32;;
73593;SDS011;64760;53.404;23.498;2023-02-03T17:29:56;14.00;;;5.32;;
73593;SDS011;64760;53.404;23.498;2023-02-03T17:32:23;14.13;;;6.15;;
73593;SDS011;64760;53.404;23.498;2023-02-03T17:34:49;14.25;;;6.15;;
73593;SDS011;64760;53.404;23.498;2023-02-03T17:37:15;18.45;;;8.00;;
73593;SDS011;64760;53.404;23.498;2023-02-03T17:39:42;11.70;;;5.32;;
73593;SDS011;64760;53.404;23.498;2023-02-03T17:42:08;22.30;;;8.27;;
73593;SDS011;64760;53.404;23.498;2023-02-03T17:44:34;29.85;;;12.73;;
73593;SDS011;64760;53.404;23.498;2023-02-03T17:47:01;43.20;;;16.75;;
73593;SDS011;64760;53.404;23.498;2023-02-03T17:49:28;16.73;;;7.70;;
73593;SDS011;64760;53.404;23.498;2023-02-03T17:51:55;32.05;;;11.52;;
73593;SDS011;64760;53.404;23.498;2023-02-03T17:54:21;16.00;;;6.20;;